createdAt,value
2022-09-05T00:03:09.287Z,14.81
2022-09-05T00:07:31.163Z,14.78
2022-09-05T00:11:54.115Z,14.78
2022-09-05T00:16:15.644Z,14.75
2022-09-05T00:24:26.077Z,14.68
2022-09-05T00:25:30.373Z,14.65
2022-09-05T00:29:52.074Z,14.59
2022-09-05T00:34:08.009Z,14.57
2022-09-05T00:38:16.649Z,14.61
2022-09-05T00:42:22.751Z,14.63
2022-09-05T00:46:44.743Z,14.55
2022-09-05T00:50:59.932Z,14.47
2022-09-05T00:55:09.526Z,14.33
2022-09-05T00:59:28.500Z,14.25
2022-09-05T01:03:36.384Z,14.21
2022-09-05T01:07:46.806Z,14.15
2022-09-05T01:11:53.369Z,14.19
2022-09-05T01:16:11.776Z,14.14
2022-09-05T01:20:19.032Z,14.16
2022-09-05T01:24:38.387Z,14.20
2022-09-05T01:29:15.738Z,14.29
2022-09-05T01:33:32.188Z,14.34
2022-09-05T01:38:02.647Z,14.24
2022-09-05T01:42:20.972Z,14.04
2022-09-05T01:46:33.448Z,13.91
2022-09-05T01:51:09.910Z,13.79
2022-09-05T01:56:03.979Z,13.79
2022-09-05T02:00:17.409Z,13.77
2022-09-05T02:04:29.424Z,13.66
2022-09-05T02:09:03.417Z,13.60
2022-09-05T02:13:25.440Z,13.50
2022-09-05T02:17:50.555Z,13.47
2022-09-05T02:22:00.708Z,13.45
2022-09-05T02:26:08.263Z,13.47
2022-09-05T02:30:13.714Z,13.48
2022-09-05T02:34:35.081Z,13.45
2022-09-05T02:45:01.241Z,13.39
2022-09-05T02:45:12.353Z,13.40
2022-09-05T02:48:15.385Z,13.42
2022-09-05T02:57:27.557Z,13.44
2022-09-05T02:57:37.801Z,13.39
2022-09-05T03:01:38.315Z,13.33
2022-09-05T03:06:02.649Z,13.32
2022-09-05T03:10:08.131Z,13.31
2022-09-05T03:14:17.657Z,13.23
2022-09-05T03:18:28.668Z,13.14
2022-09-05T03:23:08.377Z,13.04
2022-09-05T03:27:20.157Z,12.98
2022-09-05T03:31:51.562Z,12.89
2022-09-05T03:36:16.092Z,12.84
2022-09-05T03:40:31.652Z,12.79
2022-09-05T03:44:48.567Z,12.73
2022-09-05T03:48:58.034Z,12.73
2022-09-05T03:57:06.680Z,12.72
2022-09-05T03:57:55.820Z,12.73
2022-09-05T04:04:30.454Z,12.65
2022-09-05T04:08:23.745Z,12.66
2022-09-05T04:11:24.235Z,12.69
2022-09-05T04:15:33.879Z,12.77
2022-09-05T04:19:49.783Z,12.73
2022-09-05T04:24:06.940Z,12.65
2022-09-05T04:28:22.537Z,12.79
2022-09-05T04:32:54.118Z,12.77
2022-09-05T04:37:16.324Z,12.70
2022-09-05T04:41:39.751Z,12.71
2022-09-05T04:45:39.358Z,12.69
2022-09-05T04:49:57.895Z,12.75
2022-09-05T04:54:15.973Z,12.85
2022-09-05T04:58:22.688Z,12.93
2022-09-05T05:06:09.765Z,13.01
2022-09-05T05:07:07.899Z,13.24
2022-09-05T05:17:56.979Z,13.43
2022-09-05T05:18:07.790Z,13.61
2022-09-05T05:20:42.766Z,13.87
2022-09-05T05:24:58.723Z,14.18
2022-09-05T05:29:01.502Z,14.40
2022-09-05T05:33:10.729Z,14.64
2022-09-05T05:37:17.134Z,14.85
2022-09-05T05:41:28.738Z,15.09
2022-09-05T05:45:35.334Z,15.26
2022-09-05T05:49:47.704Z,15.42
2022-09-05T05:54:09.675Z,15.68
2022-09-05T05:58:12.898Z,15.77
2022-09-05T06:02:20.968Z,15.93
2022-09-05T06:06:30.322Z,16.05
2022-09-05T06:14:55.455Z,16.22
2022-09-05T06:15:22.010Z,16.46
2022-09-05T06:19:46.997Z,16.49
2022-09-05T06:24:06.421Z,16.66
2022-09-05T06:28:18.953Z,16.77
2022-09-05T06:32:32.177Z,16.90
2022-09-05T06:36:54.944Z,17.09
2022-09-05T06:41:10.718Z,17.14
2022-09-05T06:48:44.169Z,17.35
2022-09-05T06:52:56.397Z,17.56
2022-09-05T06:57:19.357Z,17.59
2022-09-05T07:01:32.634Z,17.82
2022-09-05T07:05:48.977Z,18.06
2022-09-05T07:10:22.035Z,19.61
2022-09-05T07:14:41.210Z,20.81
2022-09-05T07:19:03.382Z,21.62
2022-09-05T07:23:16.907Z,21.77
2022-09-05T07:28:26.369Z,21.97
2022-09-05T07:32:12.091Z,21.63
2022-09-05T07:36:18.529Z,22.24
2022-09-05T07:40:31.265Z,22.56
2022-09-05T07:44:43.750Z,22.80
2022-09-05T07:48:52.683Z,22.80
2022-09-05T07:56:54.315Z,22.61
2022-09-05T07:57:30.376Z,22.61
2022-09-05T08:01:22.981Z,23.08
2022-09-05T08:05:30.206Z,22.67
2022-09-05T08:10:09.070Z,23.58
2022-09-05T08:14:18.196Z,24.33
2022-09-05T08:18:45.380Z,24.65
2022-09-05T08:22:52.596Z,23.90
2022-09-05T08:27:27.086Z,23.56
2022-09-05T08:31:42.370Z,23.49
2022-09-05T08:35:52.986Z,23.79
2022-09-05T08:40:11.597Z,23.70
2022-09-05T08:46:43.403Z,23.53
2022-09-05T08:49:12.314Z,23.93
2022-09-05T08:53:45.808Z,24.02
2022-09-05T08:58:01.818Z,23.49
2022-09-05T09:02:44.583Z,23.73
2022-09-05T09:07:51.617Z,23.43
2022-09-05T09:11:32.315Z,23.64
2022-09-05T09:15:50.866Z,24.13
2022-09-05T09:20:06.184Z,23.67
2022-09-05T09:24:12.565Z,24.74
2022-09-05T09:28:48.073Z,24.73
2022-09-05T09:33:00.689Z,24.45
2022-09-05T09:37:26.789Z,25.10
2022-09-05T09:41:45.911Z,25.52
2022-09-05T09:46:07.449Z,25.45
2022-09-05T09:50:13.593Z,25.34
2022-09-05T09:54:28.898Z,25.59
2022-09-05T09:58:49.063Z,25.58
2022-09-05T10:08:14.196Z,25.22
2022-09-05T10:10:45.057Z,25.19
2022-09-05T10:12:00.206Z,25.56
2022-09-05T10:16:28.559Z,25.06
2022-09-05T10:20:29.459Z,25.03
2022-09-05T10:24:37.620Z,25.08
2022-09-05T10:28:52.917Z,25.45
2022-09-05T10:35:18.286Z,25.21
2022-09-05T10:37:45.942Z,25.79
2022-09-05T10:41:50.885Z,26.38
2022-09-05T10:45:57.154Z,25.67
2022-09-05T10:50:08.568Z,25.18
2022-09-05T10:54:13.473Z,25.76
2022-09-05T10:59:37.423Z,26.34
2022-09-05T11:03:00.698Z,27.63
2022-09-05T11:07:05.614Z,27.62
2022-09-05T11:11:12.211Z,26.06
2022-09-05T11:15:51.199Z,26.28
2022-09-05T11:20:26.116Z,26.35
2022-09-05T11:24:34.853Z,26.46
2022-09-05T11:28:57.405Z,25.89
2022-09-05T11:39:45.855Z,25.70
2022-09-05T11:39:55.599Z,27.10
2022-09-05T11:41:57.818Z,26.59
2022-09-05T11:46:05.479Z,25.91
2022-09-05T11:50:23.885Z,25.82
2022-09-05T11:54:27.334Z,26.06
2022-09-05T11:58:47.314Z,26.09
2022-09-05T12:02:59.113Z,26.07
2022-09-05T12:07:26.868Z,25.87
2022-09-05T12:11:49.744Z,25.62
2022-09-05T12:15:44.081Z,26.46
2022-09-05T12:19:59.092Z,27.34
2022-09-05T12:25:24.550Z,26.75
2022-09-05T12:29:33.736Z,26.94
2022-09-05T12:36:02.409Z,26.24
2022-09-05T12:40:16.633Z,26.63
2022-09-05T12:42:23.596Z,26.04
2022-09-05T12:46:41.365Z,26.36
2022-09-05T12:50:50.479Z,26.52
2022-09-05T12:55:06.293Z,26.12
2022-09-05T13:03:01.614Z,26.30
2022-09-05T13:03:28.648Z,25.68
2022-09-05T13:07:35.521Z,26.55
2022-09-05T13:14:49.162Z,26.72
2022-09-05T13:15:59.326Z,26.39
2022-09-05T13:19:55.372Z,26.46
2022-09-05T13:24:08.146Z,26.15
2022-09-05T13:28:24.810Z,26.84
2022-09-05T13:38:03.037Z,27.67
2022-09-05T13:38:12.953Z,27.53
2022-09-05T13:41:27.876Z,27.57
2022-09-05T13:45:14.508Z,27.45
2022-09-05T13:49:32.772Z,27.78
2022-09-05T13:53:35.716Z,27.14
2022-09-05T13:57:14.103Z,26.23
2022-09-05T14:01:18.407Z,26.27
2022-09-05T14:05:43.294Z,26.61
2022-09-05T14:09:49.761Z,26.48
2022-09-05T14:14:03.129Z,26.06
2022-09-05T14:17:51.107Z,26.33
2022-09-05T14:21:58.205Z,26.51
2022-09-05T14:26:04.918Z,26.34
2022-09-05T14:31:06.059Z,26.31
2022-09-05T14:37:51.595Z,25.82
2022-09-05T14:38:42.944Z,26.58
2022-09-05T14:42:18.269Z,27.26
2022-09-05T14:45:46.120Z,27.45
2022-09-05T14:49:49.329Z,26.97
2022-09-05T15:02:45.724Z,27.07
2022-09-05T15:02:50.860Z,27.62
2022-09-05T15:06:20.015Z,27.53
2022-09-05T15:12:23.950Z,27.36
2022-09-05T15:14:26.905Z,26.65
2022-09-05T15:18:16.047Z,26.16
2022-09-05T15:22:23.673Z,26.56
2022-09-05T15:26:16.998Z,26.51
2022-09-05T15:30:16.923Z,26.97
2022-09-05T15:34:13.352Z,27.35
2022-09-05T15:38:03.966Z,27.56
2022-09-05T15:41:59.320Z,27.67
2022-09-05T15:45:52.414Z,26.76
2022-09-05T15:49:43.179Z,26.09
2022-09-05T15:53:42.284Z,25.99
2022-09-05T15:57:33.550Z,26.15
2022-09-05T16:01:59.158Z,26.56
2022-09-05T16:10:58.344Z,26.23
2022-09-05T16:17:31.304Z,25.56
2022-09-05T16:23:31.905Z,25.26
2022-09-05T16:23:42.691Z,24.76
2022-09-05T16:27:40.904Z,24.47
2022-09-05T16:31:34.785Z,24.20
2022-09-05T16:35:33.032Z,24.32
2022-09-05T16:39:25.946Z,24.28
2022-09-05T16:43:22.730Z,24.09
2022-09-05T16:47:15.686Z,24.22
2022-09-05T16:51:32.245Z,24.41
2022-09-05T16:55:33.864Z,24.14
2022-09-05T16:59:28.564Z,23.92
2022-09-05T17:03:35.791Z,23.49
2022-09-05T17:07:31.491Z,23.30
2022-09-05T17:11:29.507Z,23.00
2022-09-05T17:15:22.681Z,22.79
2022-09-05T17:19:13.049Z,22.59
2022-09-05T17:28:16.349Z,22.30
2022-09-05T17:29:49.643Z,21.98
2022-09-05T17:31:54.125Z,21.77
2022-09-05T17:35:53.712Z,21.53
2022-09-05T17:40:01.748Z,21.39
2022-09-05T17:44:04.890Z,21.18
2022-09-05T17:47:59.950Z,20.97
2022-09-05T17:51:51.254Z,20.82
2022-09-05T17:55:41.797Z,20.75
2022-09-05T17:59:45.449Z,20.60
2022-09-05T18:03:35.070Z,20.43
2022-09-05T18:07:31.796Z,20.28
2022-09-05T18:11:44.584Z,19.97
2022-09-05T18:15:43.932Z,19.68
2022-09-05T18:19:38.331Z,19.47
2022-09-05T18:23:54.491Z,19.15
2022-09-05T18:28:03.548Z,18.84
2022-09-05T18:31:53.919Z,18.55
2022-09-05T18:35:50.846Z,18.27
2022-09-05T18:39:40.621Z,18.28
2022-09-05T18:43:35.292Z,18.21
2022-09-05T18:47:33.579Z,18.22
2022-09-05T18:51:23.887Z,18.35
2022-09-05T18:56:09.406Z,18.17
2022-09-05T18:59:27.688Z,18.14
2022-09-05T19:03:25.927Z,18.13
2022-09-05T19:07:17.946Z,18.14
2022-09-05T19:11:25.370Z,18.25
2022-09-05T19:15:38.421Z,18.10
2022-09-05T19:19:46.172Z,17.99
2022-09-05T19:24:04.280Z,17.62
2022-09-05T19:33:34.224Z,17.36
2022-09-05T19:37:06.615Z,17.21
2022-09-05T19:37:24.419Z,17.13
2022-09-05T19:47:31.113Z,17.03
2022-09-05T19:47:42.610Z,16.96
2022-09-05T19:49:20.993Z,16.81
2022-09-05T19:53:17.805Z,16.66
2022-09-05T19:57:10.426Z,16.59
2022-09-05T20:01:02.468Z,16.55
2022-09-05T20:04:56.088Z,16.47
2022-09-05T20:08:48.936Z,16.35
2022-09-05T20:12:38.930Z,16.28
2022-09-05T20:16:35.231Z,16.21
2022-09-05T20:20:26.129Z,16.14
2022-09-05T20:24:15.167Z,16.10
2022-09-05T20:28:09.692Z,16.03
2022-09-05T20:31:59.428Z,15.97
2022-09-05T20:43:07.605Z,15.97
2022-09-05T20:43:29.815Z,15.87
2022-09-05T20:44:28.926Z,15.89
2022-09-05T20:54:05.109Z,15.88
2022-09-05T20:54:19.916Z,15.84
2022-09-05T20:56:43.082Z,15.87
2022-09-05T21:00:36.289Z,15.81
2022-09-05T21:04:37.525Z,15.85
2022-09-05T21:08:28.088Z,15.89
2022-09-05T21:12:27.581Z,15.88
2022-09-05T21:16:20.941Z,15.85
2022-09-05T21:20:14.050Z,15.77
2022-09-05T21:24:18.709Z,15.78
2022-09-05T21:28:18.072Z,15.75
2022-09-05T21:32:10.699Z,15.70
2022-09-05T21:35:53.260Z,15.78
2022-09-05T21:39:57.214Z,15.85
2022-09-05T21:47:38.804Z,15.98
2022-09-05T21:47:58.901Z,15.98
2022-09-05T21:51:48.271Z,15.98
2022-09-05T21:59:19.545Z,16.07
2022-09-05T21:59:47.849Z,16.13
2022-09-05T22:03:37.594Z,16.14
2022-09-05T22:07:32.453Z,16.15
2022-09-05T22:11:22.382Z,16.08
2022-09-05T22:15:27.471Z,16.02
2022-09-05T22:18:48.859Z,15.98
2022-09-05T22:22:37.906Z,16.02
2022-09-05T22:26:30.259Z,15.98
2022-09-05T22:30:21.032Z,15.99
2022-09-05T22:34:10.900Z,15.98
2022-09-05T22:38:00.262Z,16.03
2022-09-05T22:41:52.383Z,16.04
2022-09-05T22:45:41.667Z,16.02
2022-09-05T22:49:30.691Z,15.98
2022-09-05T22:53:19.842Z,16.06
2022-09-05T22:57:09.111Z,16.04
2022-09-05T23:00:58.121Z,16.02
2022-09-05T23:04:47.245Z,15.98
2022-09-05T23:08:39.046Z,15.93
2022-09-05T23:12:28.220Z,15.91
2022-09-05T23:16:17.522Z,15.85
2022-09-05T23:20:07.016Z,15.81
2022-09-05T23:23:56.003Z,15.79
2022-09-05T23:27:45.202Z,15.65
2022-09-05T23:31:34.686Z,15.57
2022-09-05T23:35:24.972Z,15.60
2022-09-05T23:39:14.245Z,15.49
2022-09-05T23:43:03.896Z,15.44
2022-09-05T23:46:53.382Z,15.43
2022-09-05T23:50:43.145Z,15.63
2022-09-05T23:54:33.365Z,15.39
2022-09-05T23:58:22.373Z,15.33
